createdAt,value
2018-07-14T00:01:01.232Z,69.80
2018-07-14T00:03:31.639Z,69.44
2018-07-14T00:06:03.407Z,70.11
2018-07-14T00:08:34.423Z,70.81
2018-07-14T00:11:05.064Z,69.94
2018-07-14T00:13:36.762Z,70.19
2018-07-14T00:16:07.739Z,70.45
2018-07-14T00:18:38.384Z,70.23
2018-07-14T00:21:09.012Z,70.51
2018-07-14T00:23:39.054Z,69.89
2018-07-14T00:26:17.388Z,69.81
2018-07-14T00:28:47.643Z,70.32
2018-07-14T00:31:18.047Z,70.07
2018-07-14T00:33:48.158Z,70.75
2018-07-14T00:36:18.439Z,71.07
2018-07-14T00:38:53.212Z,70.35
2018-07-14T00:41:28.059Z,70.88
2018-07-14T00:43:59.199Z,70.87
2018-07-14T00:46:29.527Z,70.79
2018-07-14T00:49:03.708Z,70.63
2018-07-14T00:51:36.001Z,70.33
2018-07-14T00:54:08.583Z,70.27
2018-07-14T00:56:43.975Z,71.27
2018-07-14T00:59:14.773Z,71.98
2018-07-14T01:01:45.371Z,71.18
2018-07-14T01:04:14.622Z,70.61
2018-07-14T01:06:43.830Z,71.14
2018-07-14T01:09:13.063Z,70.95
2018-07-14T01:11:42.331Z,70.35
2018-07-14T01:14:11.656Z,70.45
2018-07-14T01:16:40.994Z,70.05
2018-07-14T01:19:10.216Z,69.78
2018-07-14T01:21:39.451Z,69.54
2018-07-14T01:24:08.743Z,68.84
2018-07-14T01:26:37.990Z,69.61
2018-07-14T01:29:07.303Z,69.72
2018-07-14T01:31:36.560Z,70.11
2018-07-14T01:34:05.784Z,69.24
2018-07-14T01:36:35.030Z,69.39
2018-07-14T01:39:05.056Z,70.03
2018-07-14T01:41:34.374Z,70.40
2018-07-14T01:44:03.610Z,70.67
2018-07-14T01:46:32.840Z,71.12
2018-07-14T01:49:02.080Z,71.62
2018-07-14T01:51:31.367Z,71.18
2018-07-14T01:54:00.603Z,71.19
2018-07-14T01:56:29.905Z,70.98
2018-07-14T01:58:59.128Z,71.54
2018-07-14T02:01:28.355Z,71.51
2018-07-14T02:03:57.583Z,71.95
2018-07-14T02:06:26.817Z,72.12
2018-07-14T02:08:56.102Z,71.26
2018-07-14T02:11:25.480Z,71.65
2018-07-14T02:13:54.548Z,71.90
2018-07-14T02:16:23.785Z,72.30
2018-07-14T02:18:53.182Z,73.22
2018-07-14T02:21:22.407Z,73.15
2018-07-14T02:23:51.728Z,73.86
2018-07-14T02:26:22.014Z,73.80
2018-07-14T02:28:51.338Z,74.43
2018-07-14T02:31:20.614Z,74.83
2018-07-14T02:33:49.855Z,74.72
2018-07-14T02:36:19.159Z,75.75
2018-07-14T02:38:48.412Z,75.50
2018-07-14T02:41:17.778Z,76.23
2018-07-14T02:43:47.315Z,76.10
2018-07-14T02:46:16.667Z,75.88
2018-07-14T02:48:45.652Z,75.30
2018-07-14T02:51:14.983Z,75.08
2018-07-14T02:53:44.051Z,75.37
2018-07-14T02:56:13.335Z,75.42
2018-07-14T02:58:42.579Z,75.76
2018-07-14T03:01:11.891Z,75.44
2018-07-14T03:03:41.243Z,75.56
2018-07-14T03:06:10.546Z,75.77
2018-07-14T03:08:39.771Z,75.87
2018-07-14T03:11:08.982Z,75.53
2018-07-14T03:13:38.295Z,76.05
2018-07-14T03:16:07.603Z,76.43
2018-07-14T03:18:36.851Z,76.24
2018-07-14T03:21:06.047Z,76.45
2018-07-14T03:23:35.328Z,76.81
2018-07-14T03:26:04.589Z,76.17
2018-07-14T03:28:33.827Z,76.32
2018-07-14T03:31:03.080Z,77.00
2018-07-14T03:33:32.399Z,77.00
2018-07-14T03:36:01.613Z,76.78
2018-07-14T03:38:30.865Z,76.82
2018-07-14T03:41:00.068Z,77.37
2018-07-14T03:43:29.282Z,77.52
2018-07-14T03:45:58.524Z,77.50
2018-07-14T03:48:27.876Z,77.47
2018-07-14T03:50:57.103Z,77.80
2018-07-14T03:53:26.328Z,78.26
2018-07-14T03:55:55.554Z,78.83
2018-07-14T03:58:24.787Z,78.58
2018-07-14T04:00:54.091Z,78.70
2018-07-14T04:03:23.277Z,79.15
2018-07-14T04:05:52.512Z,79.04
2018-07-14T04:08:21.763Z,78.99
2018-07-14T04:10:51.024Z,79.18
2018-07-14T04:13:20.283Z,78.83
2018-07-14T04:15:49.574Z,79.84
2018-07-14T04:18:18.847Z,79.36
2018-07-14T04:20:48.170Z,79.13
2018-07-14T04:23:17.669Z,79.04
2018-07-14T04:25:46.927Z,78.91
2018-07-14T04:28:16.454Z,78.60
2018-07-14T04:30:45.686Z,78.32
2018-07-14T04:33:14.951Z,77.90
2018-07-14T04:35:44.187Z,78.62
2018-07-14T04:38:13.492Z,76.97
2018-07-14T04:40:42.787Z,76.60
2018-07-14T04:43:12.030Z,76.54
2018-07-14T04:45:41.299Z,76.29
2018-07-14T04:48:10.514Z,75.33
2018-07-14T04:50:39.784Z,75.26
2018-07-14T04:53:09.027Z,74.79
2018-07-14T04:55:38.283Z,73.83
2018-07-14T04:58:08.885Z,73.82
2018-07-14T05:00:38.127Z,72.50
2018-07-14T05:03:07.363Z,70.92
2018-07-14T05:05:36.606Z,70.40
2018-07-14T05:08:05.841Z,71.06
2018-07-14T05:10:35.095Z,70.57
2018-07-14T05:13:04.360Z,71.46
2018-07-14T05:15:33.676Z,70.43
2018-07-14T05:18:02.951Z,67.92
2018-07-14T05:20:32.225Z,64.81
2018-07-14T05:23:01.451Z,64.05
2018-07-14T05:25:30.658Z,63.62
2018-07-14T05:27:59.863Z,61.43
2018-07-14T05:30:29.191Z,58.94
2018-07-14T05:32:58.410Z,59.09
2018-07-14T05:35:27.618Z,58.72
2018-07-14T05:37:56.814Z,58.63
2018-07-14T05:40:26.035Z,56.54
2018-07-14T05:42:55.230Z,57.67
2018-07-14T05:45:24.447Z,58.06
2018-07-14T05:47:53.645Z,56.91
2018-07-14T05:50:22.889Z,55.83
2018-07-14T05:52:52.122Z,57.13
2018-07-14T05:55:21.109Z,56.25
2018-07-14T05:57:50.370Z,57.53
2018-07-14T06:00:19.650Z,55.68
2018-07-14T06:02:48.918Z,55.57
2018-07-14T06:05:18.187Z,55.72
2018-07-14T06:07:48.209Z,56.06
2018-07-14T06:10:17.440Z,55.44
2018-07-14T06:12:46.664Z,55.97
2018-07-14T06:15:15.923Z,56.06
2018-07-14T06:17:45.180Z,54.85
2018-07-14T06:20:14.438Z,55.25
2018-07-14T06:22:43.640Z,53.28
2018-07-14T06:25:12.925Z,53.53
2018-07-14T06:27:42.206Z,53.05
2018-07-14T06:30:11.523Z,53.17
2018-07-14T06:32:40.769Z,54.55
2018-07-14T06:35:10.017Z,54.05
2018-07-14T06:37:39.210Z,54.23
2018-07-14T06:40:08.401Z,52.97
2018-07-14T06:42:37.671Z,52.85
2018-07-14T06:45:07.015Z,50.78
2018-07-14T06:47:36.564Z,50.86
2018-07-14T06:50:05.887Z,51.55
2018-07-14T06:52:35.255Z,51.87
2018-07-14T06:55:04.251Z,51.03
2018-07-14T06:57:33.590Z,50.44
2018-07-14T07:00:02.829Z,50.40
2018-07-14T07:02:32.093Z,51.83
2018-07-14T07:05:02.014Z,52.38
2018-07-14T07:07:31.656Z,53.32
2018-07-14T07:10:01.700Z,52.32
2018-07-14T07:12:31.594Z,50.94
2018-07-14T07:15:01.957Z,51.97
2018-07-14T07:17:32.133Z,51.85
2018-07-14T07:20:02.371Z,51.90
2018-07-14T07:22:31.677Z,52.29
2018-07-14T07:25:01.266Z,50.95
2018-07-14T07:27:30.482Z,50.68
2018-07-14T07:29:59.819Z,50.75
2018-07-14T07:32:29.212Z,51.34
2018-07-14T07:34:58.485Z,49.51
2018-07-14T07:37:27.703Z,48.82
2018-07-14T07:39:56.990Z,49.22
2018-07-14T07:42:26.435Z,48.88
2018-07-14T07:44:55.728Z,48.82
2018-07-14T07:47:24.997Z,48.26
2018-07-14T07:49:54.335Z,47.49
2018-07-14T07:52:23.679Z,48.32
2018-07-14T07:54:52.934Z,48.01
2018-07-14T07:57:22.227Z,46.86
2018-07-14T07:59:51.589Z,47.43
2018-07-14T08:02:20.870Z,47.49
2018-07-14T08:04:50.131Z,45.49
2018-07-14T08:07:19.413Z,45.58
2018-07-14T08:09:48.713Z,46.88
2018-07-14T08:12:17.955Z,45.02
2018-07-14T08:14:47.230Z,44.99
2018-07-14T08:17:16.533Z,45.23
2018-07-14T08:19:52.319Z,46.28
2018-07-14T08:22:21.602Z,46.02
2018-07-14T08:24:50.863Z,45.95
2018-07-14T08:27:20.083Z,45.82
2018-07-14T08:29:49.265Z,44.67
2018-07-14T08:32:18.566Z,43.85
2018-07-14T08:34:47.791Z,44.49
2018-07-14T08:37:17.106Z,45.81
2018-07-14T08:39:46.361Z,44.22
2018-07-14T08:42:15.668Z,43.75
2018-07-14T08:44:44.961Z,45.08
2018-07-14T08:47:14.222Z,45.51
2018-07-14T08:49:43.687Z,44.86
2018-07-14T08:52:12.945Z,45.73
2018-07-14T08:54:42.182Z,45.33
2018-07-14T08:57:11.481Z,44.87
2018-07-14T08:59:40.720Z,44.69
2018-07-14T09:02:09.936Z,43.92
2018-07-14T09:04:39.195Z,43.05
2018-07-14T09:07:08.507Z,43.82
2018-07-14T09:09:37.819Z,43.01
2018-07-14T09:12:07.178Z,43.64
2018-07-14T09:14:36.499Z,42.62
2018-07-14T09:17:06.171Z,42.80
2018-07-14T09:19:35.416Z,43.20
2018-07-14T09:22:04.702Z,43.34
2018-07-14T09:24:33.946Z,42.58
2018-07-14T09:27:03.260Z,43.73
2018-07-14T09:29:32.581Z,44.47
2018-07-14T09:32:01.784Z,45.65
2018-07-14T09:34:31.019Z,44.55
2018-07-14T09:37:00.271Z,43.27
2018-07-14T09:39:29.531Z,43.54
2018-07-14T09:41:58.762Z,41.40
2018-07-14T09:44:28.243Z,43.16
2018-07-14T09:46:58.045Z,41.66
2018-07-14T09:49:27.833Z,40.96
2018-07-14T09:51:57.319Z,41.19
2018-07-14T09:54:26.305Z,39.90
2018-07-14T09:56:55.523Z,40.12
2018-07-14T09:59:24.780Z,40.41
2018-07-14T10:01:54.111Z,39.16
2018-07-14T10:04:23.344Z,38.69
2018-07-14T10:06:52.649Z,40.25
2018-07-14T10:09:21.877Z,38.72
2018-07-14T10:11:51.174Z,38.48
2018-07-14T10:14:20.436Z,38.51
2018-07-14T10:16:49.819Z,38.26
2018-07-14T10:19:18.839Z,38.22
2018-07-14T10:21:48.122Z,37.89
2018-07-14T10:24:17.393Z,38.14
2018-07-14T10:26:46.593Z,39.76
2018-07-14T10:29:15.871Z,36.70
2018-07-14T10:31:45.091Z,36.41
2018-07-14T10:34:14.100Z,36.39
2018-07-14T10:36:43.316Z,36.69
2018-07-14T10:39:12.673Z,37.64
2018-07-14T10:41:41.885Z,36.04
2018-07-14T10:44:11.199Z,36.77
2018-07-14T10:46:40.549Z,35.54
2018-07-14T10:49:09.820Z,35.80
2018-07-14T10:51:39.958Z,32.93
2018-07-14T10:54:09.144Z,34.92
2018-07-14T10:56:38.467Z,35.41
2018-07-14T10:59:07.712Z,34.64
2018-07-14T11:01:36.991Z,33.03
2018-07-14T11:04:06.701Z,34.26
2018-07-14T11:06:35.738Z,34.85
2018-07-14T11:09:05.667Z,34.53
2018-07-14T11:11:35.008Z,34.21
2018-07-14T11:14:04.240Z,33.92
2018-07-14T11:16:33.788Z,33.82
2018-07-14T11:19:02.999Z,33.01
2018-07-14T11:21:32.296Z,32.79
2018-07-14T11:24:01.565Z,33.50
2018-07-14T11:26:30.832Z,32.35
2018-07-14T11:29:00.081Z,32.88
2018-07-14T11:31:29.430Z,32.97
2018-07-14T11:33:58.658Z,33.29
2018-07-14T11:36:27.865Z,33.40
2018-07-14T11:38:57.086Z,33.75
2018-07-14T11:41:26.352Z,32.15
2018-07-14T11:43:55.561Z,32.04
2018-07-14T11:46:31.142Z,31.71
2018-07-14T11:49:00.327Z,32.27
2018-07-14T11:51:29.547Z,32.39
2018-07-14T11:53:58.755Z,32.24
2018-07-14T11:56:28.043Z,32.84
2018-07-14T11:58:57.340Z,34.63
2018-07-14T12:01:26.667Z,34.34
2018-07-14T12:03:55.930Z,33.05
2018-07-14T12:06:25.250Z,32.96
2018-07-14T12:08:54.696Z,31.15
2018-07-14T12:11:24.011Z,31.52
2018-07-14T12:13:53.280Z,31.50
2018-07-14T12:16:22.619Z,33.65
2018-07-14T12:18:51.974Z,33.60
2018-07-14T12:21:21.242Z,33.87
2018-07-14T12:23:51.587Z,32.78
2018-07-14T12:26:20.858Z,33.58
2018-07-14T12:28:50.116Z,33.48
2018-07-14T12:31:19.426Z,31.57
2018-07-14T12:33:49.558Z,32.05
2018-07-14T12:36:18.903Z,31.67
2018-07-14T12:38:48.173Z,30.76
2018-07-14T12:41:17.501Z,30.56
2018-07-14T12:43:46.770Z,30.42
2018-07-14T12:46:16.041Z,30.92
2018-07-14T12:48:45.356Z,31.91
2018-07-14T12:51:14.619Z,30.58
2018-07-14T12:53:43.908Z,32.11
2018-07-14T12:56:13.163Z,33.70
2018-07-14T12:58:42.674Z,34.02
2018-07-14T13:01:12.066Z,32.08
2018-07-14T13:03:41.331Z,32.18
2018-07-14T13:06:10.913Z,33.39
2018-07-14T13:08:40.183Z,32.03
2018-07-14T13:11:09.404Z,32.97
2018-07-14T13:13:38.662Z,30.56
2018-07-14T13:16:07.918Z,30.20
2018-07-14T13:18:36.933Z,29.23
2018-07-14T13:21:06.279Z,29.05
2018-07-14T13:23:35.760Z,30.53
2018-07-14T13:26:05.090Z,31.70
2018-07-14T13:28:34.581Z,32.93
2018-07-14T13:31:03.965Z,30.78
2018-07-14T13:33:33.230Z,32.40
2018-07-14T13:36:02.480Z,31.13
2018-07-14T13:38:31.756Z,31.14
2018-07-14T13:41:01.015Z,30.78
2018-07-14T13:43:30.284Z,31.53
2018-07-14T13:45:59.538Z,30.61
2018-07-14T13:48:28.920Z,30.59
2018-07-14T13:50:58.414Z,32.06
2018-07-14T13:53:27.827Z,31.41
2018-07-14T13:55:57.123Z,31.07
2018-07-14T13:58:26.493Z,31.71
2018-07-14T14:00:55.746Z,31.73
2018-07-14T14:03:25.090Z,29.53
2018-07-14T14:05:54.379Z,28.50
2018-07-14T14:08:23.676Z,28.42
2018-07-14T14:10:52.972Z,27.91
2018-07-14T14:13:22.218Z,29.82
2018-07-14T14:15:51.521Z,29.41
2018-07-14T14:18:20.847Z,30.02
2018-07-14T14:20:50.222Z,30.21
2018-07-14T14:23:19.633Z,30.21
2018-07-14T14:25:48.966Z,30.90
2018-07-14T14:28:18.037Z,31.35
2018-07-14T14:30:47.367Z,29.68
2018-07-14T14:33:16.606Z,29.99
2018-07-14T14:35:45.928Z,29.30
2018-07-14T14:38:14.901Z,29.22
2018-07-14T14:40:44.267Z,28.13
2018-07-14T14:43:13.524Z,26.97
2018-07-14T14:45:42.786Z,29.08
2018-07-14T14:48:12.044Z,31.48
2018-07-14T14:50:41.306Z,29.90
2018-07-14T14:53:10.747Z,30.54
2018-07-14T14:55:39.858Z,30.50
2018-07-14T14:58:09.635Z,30.55
2018-07-14T15:00:38.994Z,30.99
2018-07-14T15:03:08.340Z,30.22
2018-07-14T15:05:37.682Z,32.37
2018-07-14T15:08:07.007Z,31.75
2018-07-14T15:10:36.403Z,31.98
2018-07-14T15:13:05.763Z,32.79
2018-07-14T15:15:35.118Z,31.07
2018-07-14T15:18:04.383Z,31.29
2018-07-14T15:20:33.697Z,31.99
2018-07-14T15:23:02.987Z,31.17
2018-07-14T15:25:32.240Z,33.00
2018-07-14T15:28:01.489Z,30.70
2018-07-14T15:30:30.777Z,31.69
2018-07-14T15:33:00.302Z,31.81
2018-07-14T15:35:29.531Z,31.49
2018-07-14T15:37:58.851Z,31.04
2018-07-14T15:40:28.085Z,30.86
2018-07-14T15:42:57.329Z,31.26
2018-07-14T15:45:26.582Z,30.54
2018-07-14T15:47:55.654Z,31.98
2018-07-14T15:50:24.912Z,30.93
2018-07-14T15:52:54.150Z,31.86
2018-07-14T15:55:23.447Z,31.78
2018-07-14T15:57:52.727Z,31.03
2018-07-14T16:00:22.135Z,32.43
2018-07-14T16:02:51.351Z,32.39
2018-07-14T16:05:20.618Z,33.10
2018-07-14T16:07:49.928Z,33.46
2018-07-14T16:10:19.163Z,32.78
2018-07-14T16:12:48.424Z,32.49
2018-07-14T16:15:17.647Z,33.42
2018-07-14T16:17:46.890Z,34.47
2018-07-14T16:20:16.105Z,34.17
2018-07-14T16:22:45.499Z,34.12
2018-07-14T16:25:14.706Z,34.10
2018-07-14T16:27:44.404Z,34.69
2018-07-14T16:30:13.592Z,35.01
2018-07-14T16:32:42.822Z,35.71
2018-07-14T16:35:12.153Z,35.02
2018-07-14T16:37:41.574Z,34.77
2018-07-14T16:40:10.811Z,34.66
2018-07-14T16:42:40.040Z,34.76
2018-07-14T16:45:09.235Z,36.05
2018-07-14T16:47:38.479Z,33.47
2018-07-14T16:50:07.722Z,33.97
2018-07-14T16:52:36.940Z,33.56
2018-07-14T16:55:06.624Z,33.17
2018-07-14T16:57:35.935Z,32.62
2018-07-14T17:00:05.336Z,32.36
2018-07-14T17:02:34.972Z,32.16
2018-07-14T17:05:04.267Z,32.49
2018-07-14T17:07:33.527Z,34.03
2018-07-14T17:10:02.815Z,35.34
2018-07-14T17:12:32.048Z,35.25
2018-07-14T17:15:01.239Z,36.20
2018-07-14T17:17:30.505Z,34.88
2018-07-14T17:19:59.734Z,35.55
2018-07-14T17:22:28.933Z,35.59
2018-07-14T17:24:58.146Z,35.76
2018-07-14T17:27:27.884Z,35.61
2018-07-14T17:29:57.138Z,35.94
2018-07-14T17:32:26.494Z,35.98
2018-07-14T17:34:55.779Z,35.52
2018-07-14T17:37:25.096Z,35.67
2018-07-14T17:39:54.398Z,35.98
2018-07-14T17:42:23.776Z,35.99
2018-07-14T17:44:53.111Z,36.43
2018-07-14T17:47:22.422Z,37.21
2018-07-14T17:49:51.719Z,37.12
2018-07-14T17:52:21.350Z,37.24
2018-07-14T17:54:50.798Z,37.74
2018-07-14T17:57:20.192Z,38.42
2018-07-14T17:59:49.600Z,38.95
2018-07-14T18:02:18.992Z,38.77
2018-07-14T18:04:48.884Z,41.85
2018-07-14T18:07:18.233Z,42.70
2018-07-14T18:09:47.504Z,41.84
2018-07-14T18:12:16.965Z,41.27
2018-07-14T18:14:46.349Z,41.82
2018-07-14T18:17:15.611Z,42.36
2018-07-14T18:19:44.983Z,42.41
2018-07-14T18:22:14.278Z,42.03
2018-07-14T18:24:44.008Z,42.17
2018-07-14T18:27:13.286Z,42.14
2018-07-14T18:29:43.532Z,42.52
2018-07-14T18:32:12.873Z,43.53
2018-07-14T18:34:42.182Z,43.84
2018-07-14T18:37:11.568Z,44.04
2018-07-14T18:39:40.886Z,44.41
2018-07-14T18:42:10.209Z,44.71
2018-07-14T18:44:39.582Z,44.62
2018-07-14T18:47:08.845Z,45.18
2018-07-14T18:49:37.862Z,45.98
2018-07-14T18:52:07.598Z,47.31
2018-07-14T18:54:36.828Z,48.30
2018-07-14T18:57:06.187Z,49.44
2018-07-14T18:59:35.730Z,49.97
2018-07-14T19:02:04.795Z,50.00
2018-07-14T19:04:34.167Z,50.93
2018-07-14T19:07:03.442Z,50.53
2018-07-14T19:09:32.694Z,51.47
2018-07-14T19:12:02.174Z,51.84
2018-07-14T19:14:31.418Z,52.25
2018-07-14T19:17:00.803Z,53.23
2018-07-14T19:19:30.186Z,53.91
2018-07-14T19:21:59.524Z,54.68
2018-07-14T19:24:28.766Z,54.56
2018-07-14T19:26:58.073Z,55.18
2018-07-14T19:29:27.344Z,55.33
2018-07-14T19:31:56.611Z,55.54
2018-07-14T19:34:25.947Z,56.68
2018-07-14T19:36:55.272Z,56.83
2018-07-14T19:39:24.623Z,57.11
2018-07-14T19:41:53.910Z,55.83
2018-07-14T19:44:23.219Z,55.56
2018-07-14T19:46:52.506Z,56.22
2018-07-14T19:49:21.819Z,55.62
2018-07-14T19:51:51.184Z,56.16
2018-07-14T19:54:20.543Z,56.43
2018-07-14T19:56:49.900Z,57.30
2018-07-14T19:59:19.792Z,57.71
2018-07-14T20:01:49.338Z,57.71
2018-07-14T20:04:19.074Z,58.23
2018-07-14T20:06:48.425Z,57.97
2018-07-14T20:09:17.742Z,58.54
2018-07-14T20:11:46.950Z,58.96
2018-07-14T20:14:16.229Z,59.31
2018-07-14T20:16:45.447Z,59.99
2018-07-14T20:19:14.688Z,60.14
2018-07-14T20:21:43.971Z,60.20
2018-07-14T20:24:13.228Z,61.32
2018-07-14T20:26:42.506Z,61.20
2018-07-14T20:29:11.865Z,61.99
2018-07-14T20:31:41.053Z,61.82
2018-07-14T20:34:10.296Z,62.67
2018-07-14T20:36:39.582Z,62.01
2018-07-14T20:39:08.841Z,61.71
2018-07-14T20:41:38.164Z,62.34
2018-07-14T20:44:07.373Z,61.77
2018-07-14T20:46:36.627Z,61.53
2018-07-14T20:49:05.939Z,62.09
2018-07-14T20:51:35.182Z,62.00
2018-07-14T20:54:04.493Z,62.56
2018-07-14T20:56:33.772Z,62.76
2018-07-14T20:59:02.996Z,63.07
2018-07-14T21:01:32.295Z,63.78
2018-07-14T21:04:01.590Z,63.44
2018-07-14T21:06:30.903Z,63.45
2018-07-14T21:09:00.220Z,64.92
2018-07-14T21:11:29.510Z,64.66
2018-07-14T21:13:58.859Z,64.63
2018-07-14T21:16:28.171Z,65.08
2018-07-14T21:18:57.175Z,65.12
2018-07-14T21:21:26.671Z,65.53
2018-07-14T21:23:55.777Z,65.90
2018-07-14T21:26:25.040Z,66.61
2018-07-14T21:28:54.305Z,66.60
2018-07-14T21:31:23.621Z,66.61
2018-07-14T21:33:52.994Z,67.19
2018-07-14T21:36:22.316Z,66.98
2018-07-14T21:38:51.747Z,67.01
2018-07-14T21:41:21.266Z,66.69
2018-07-14T21:43:50.824Z,66.24
2018-07-14T21:46:20.238Z,66.47
2018-07-14T21:48:49.612Z,67.09
2018-07-14T21:51:19.012Z,66.54
2018-07-14T21:53:48.414Z,67.19
2018-07-14T21:56:17.767Z,66.79
2018-07-14T21:58:47.043Z,66.66
2018-07-14T22:01:21.527Z,66.25
2018-07-14T22:03:50.988Z,66.67
2018-07-14T22:06:20.459Z,67.08
2018-07-14T22:08:49.847Z,66.56
2018-07-14T22:11:19.220Z,67.15
2018-07-14T22:13:48.596Z,67.27
2018-07-14T22:16:18.019Z,67.07
2018-07-14T22:18:47.308Z,67.82
2018-07-14T22:21:16.569Z,67.33
2018-07-14T22:23:45.847Z,68.83
2018-07-14T22:26:15.119Z,68.71
2018-07-14T22:28:44.333Z,68.18
2018-07-14T22:31:13.535Z,68.92
2018-07-14T22:33:42.761Z,68.95
2018-07-14T22:36:11.970Z,69.75
2018-07-14T22:38:41.240Z,70.08
2018-07-14T22:41:10.469Z,70.02
2018-07-14T22:43:39.712Z,69.71
2018-07-14T22:46:08.980Z,69.72
2018-07-14T22:48:38.234Z,70.29
2018-07-14T22:51:07.507Z,70.12
2018-07-14T22:53:36.798Z,70.44
2018-07-14T22:56:06.088Z,71.44
2018-07-14T22:58:35.415Z,71.70
2018-07-14T23:01:04.668Z,71.54
2018-07-14T23:03:33.970Z,71.09
2018-07-14T23:06:03.247Z,71.46
2018-07-14T23:08:32.563Z,72.09
2018-07-14T23:11:01.790Z,72.57
2018-07-14T23:13:31.040Z,72.94
2018-07-14T23:16:00.280Z,73.28
2018-07-14T23:18:29.522Z,74.06
2018-07-14T23:20:58.821Z,74.21
2018-07-14T23:23:28.043Z,74.09
2018-07-14T23:25:57.251Z,73.82
2018-07-14T23:28:26.495Z,73.67
2018-07-14T23:30:55.800Z,74.17
2018-07-14T23:33:25.024Z,73.54
2018-07-14T23:35:54.251Z,73.45
2018-07-14T23:38:23.476Z,73.21
2018-07-14T23:40:52.723Z,72.96
2018-07-14T23:43:21.963Z,73.53
2018-07-14T23:45:51.251Z,73.73
2018-07-14T23:48:20.543Z,74.21
2018-07-14T23:50:49.812Z,74.58
2018-07-14T23:53:19.139Z,75.02
2018-07-14T23:55:48.410Z,75.02
2018-07-14T23:58:17.811Z,75.83
